createdAt,value
2022-09-06T00:00:16.971Z,0.68
2022-09-06T00:01:19.609Z,0.55
2022-09-06T00:02:22.048Z,0.60
2022-09-06T00:03:24.976Z,1.02
2022-09-06T00:04:27.574Z,0.60
2022-09-06T00:05:31.969Z,0.63
2022-09-06T00:06:34.838Z,0.80
2022-09-06T00:07:37.802Z,0.80
2022-09-06T00:08:40.808Z,0.80
2022-09-06T00:09:43.262Z,0.88
2022-09-06T00:10:45.773Z,0.52
2022-09-06T00:11:48.256Z,0.60
2022-09-06T00:12:50.725Z,0.50
2022-09-06T00:13:53.119Z,0.45
2022-09-06T00:14:55.542Z,0.70
2022-09-06T00:16:05.692Z,0.60
2022-09-06T00:17:08.187Z,0.60
2022-09-06T00:18:10.588Z,0.63
2022-09-06T00:19:12.986Z,0.68
2022-09-06T00:20:15.625Z,0.68
2022-09-06T00:21:21.035Z,0.50
2022-09-06T00:22:23.462Z,0.70
2022-09-06T00:23:25.900Z,0.70
2022-09-06T00:24:28.304Z,0.60
2022-09-06T00:25:31.817Z,0.70
2022-09-06T00:26:34.240Z,0.73
2022-09-06T00:27:36.751Z,0.90
2022-09-06T00:28:39.769Z,0.70
2022-09-06T00:29:42.246Z,0.60
2022-09-06T00:30:44.694Z,0.80
2022-09-06T00:31:47.146Z,0.80
2022-09-06T00:32:50.010Z,0.70
2022-09-06T00:33:52.570Z,0.95
2022-09-06T00:34:55.004Z,0.50
2022-09-06T00:36:00.685Z,0.70
2022-09-06T00:37:03.201Z,0.50
2022-09-06T00:38:05.643Z,0.60
2022-09-06T00:39:08.071Z,0.50
2022-09-06T00:40:11.312Z,0.70
2022-09-06T00:41:15.824Z,0.73
2022-09-06T00:42:18.267Z,0.60
2022-09-06T00:43:20.646Z,0.60
2022-09-06T00:44:23.241Z,0.60
2022-09-06T00:45:27.929Z,0.70
2022-09-06T00:46:31.619Z,0.90
2022-09-06T00:47:36.559Z,0.60
2022-09-06T00:48:39.839Z,0.73
2022-09-06T00:49:47.397Z,0.70
2022-09-06T00:50:53.834Z,0.60
2022-09-06T00:52:01.603Z,0.60
2022-09-06T00:53:04.190Z,0.60
2022-09-06T00:54:09.028Z,0.57
2022-09-06T00:55:12.039Z,0.60
2022-09-06T00:56:14.694Z,0.43
2022-09-06T00:57:17.967Z,0.80
2022-09-06T00:58:20.922Z,0.60
2022-09-06T00:59:25.833Z,0.57
2022-09-06T01:00:28.341Z,0.60
2022-09-06T01:01:30.845Z,0.60
2022-09-06T01:02:33.430Z,0.75
2022-09-06T01:03:37.755Z,0.65
2022-09-06T01:04:43.497Z,0.77
2022-09-06T01:06:14.518Z,0.68
2022-09-06T01:07:34.681Z,0.80
2022-09-06T01:09:07.636Z,0.60
2022-09-06T01:10:23.650Z,0.70
2022-09-06T01:11:44.744Z,0.70
2022-09-06T01:12:53.346Z,0.68
2022-09-06T01:14:04.842Z,0.60
2022-09-06T01:15:44.830Z,0.70
2022-09-06T01:17:19.318Z,0.65
2022-09-06T01:18:36.441Z,0.70
2022-09-06T01:20:09.786Z,0.65
2022-09-06T01:21:24.054Z,0.80
2022-09-06T01:22:54.507Z,0.70
2022-09-06T01:23:59.617Z,0.70
2022-09-06T01:25:55.409Z,0.85
2022-09-06T01:27:14.976Z,0.60
2022-09-06T01:28:37.630Z,0.55
2022-09-06T01:29:50.025Z,0.60
2022-09-06T01:31:05.129Z,0.70
2022-09-06T01:32:34.675Z,0.60
2022-09-06T01:33:55.821Z,0.68
2022-09-06T01:35:22.951Z,0.80
2022-09-06T01:36:30.050Z,0.80
2022-09-06T01:37:33.036Z,0.45
2022-09-06T01:38:38.351Z,0.60
2022-09-06T01:39:42.236Z,0.75
2022-09-06T01:40:44.652Z,0.60
2022-09-06T01:41:47.184Z,0.63
2022-09-06T01:42:51.047Z,0.80
2022-09-06T01:43:55.282Z,0.60
2022-09-06T01:45:12.363Z,0.70
2022-09-06T01:46:32.604Z,0.77
2022-09-06T01:48:07.820Z,0.90
2022-09-06T01:49:10.324Z,0.55
2022-09-06T01:50:27.303Z,0.70
2022-09-06T01:51:48.393Z,0.65
2022-09-06T01:53:03.229Z,0.77
2022-09-06T01:54:20.985Z,0.50
2022-09-06T01:55:44.926Z,0.60
2022-09-06T01:57:12.965Z,0.52
2022-09-06T01:58:45.839Z,0.63
2022-09-06T01:59:57.698Z,0.80
2022-09-06T02:01:06.204Z,0.50
2022-09-06T02:02:35.761Z,0.70
2022-09-06T02:03:57.920Z,0.70
2022-09-06T02:05:08.573Z,0.70
2022-09-06T02:06:19.912Z,0.55
2022-09-06T02:07:27.828Z,0.60
2022-09-06T02:08:38.458Z,0.70
2022-09-06T02:09:42.780Z,0.52
2022-09-06T02:10:54.888Z,0.60
2022-09-06T02:12:00.284Z,0.70
2022-09-06T02:13:06.446Z,0.70
2022-09-06T02:14:17.895Z,0.60
2022-09-06T02:15:28.708Z,0.50
2022-09-06T02:16:35.435Z,0.60
2022-09-06T02:17:42.878Z,0.65
2022-09-06T02:18:52.412Z,0.50
2022-09-06T02:20:04.342Z,0.77
2022-09-06T02:21:08.758Z,0.60
2022-09-06T02:22:15.115Z,0.50
2022-09-06T02:23:18.850Z,0.75
2022-09-06T02:24:29.984Z,0.50
2022-09-06T02:25:38.295Z,0.80
2022-09-06T02:26:43.560Z,0.73
2022-09-06T02:27:46.201Z,0.70
2022-09-06T02:28:48.801Z,0.47
2022-09-06T02:29:51.266Z,0.73
2022-09-06T02:31:01.375Z,0.57
2022-09-06T02:32:20.147Z,0.60
2022-09-06T02:33:28.080Z,0.80
2022-09-06T02:34:30.756Z,0.70
2022-09-06T02:35:45.741Z,0.60
2022-09-06T02:36:48.706Z,0.60
2022-09-06T02:37:52.019Z,0.73
2022-09-06T02:38:54.916Z,0.65
2022-09-06T02:39:57.646Z,0.47
2022-09-06T02:41:00.713Z,0.70
2022-09-06T02:42:04.623Z,0.57
2022-09-06T02:43:07.246Z,0.75
2022-09-06T02:44:09.718Z,0.50
2022-09-06T02:45:12.163Z,0.50
2022-09-06T02:46:15.059Z,0.60
2022-09-06T02:47:17.673Z,0.80
2022-09-06T02:48:20.112Z,0.73
2022-09-06T02:49:22.500Z,0.63
2022-09-06T02:50:24.887Z,0.70
2022-09-06T02:51:27.344Z,0.80
2022-09-06T02:52:29.715Z,0.57
2022-09-06T02:53:33.638Z,0.80
2022-09-06T02:54:36.146Z,0.60
2022-09-06T02:55:39.122Z,0.50
2022-09-06T02:56:41.508Z,0.60
2022-09-06T02:57:43.855Z,0.52
2022-09-06T02:58:46.280Z,0.60
2022-09-06T02:59:48.909Z,0.60
2022-09-06T03:00:52.749Z,0.60
2022-09-06T03:01:55.223Z,0.60
2022-09-06T03:02:57.792Z,0.47
2022-09-06T03:04:00.664Z,0.82
2022-09-06T03:05:06.379Z,0.63
2022-09-06T03:06:08.919Z,0.77
2022-09-06T03:07:11.319Z,0.50
2022-09-06T03:08:13.775Z,0.43
2022-09-06T03:09:16.150Z,0.60
2022-09-06T03:10:18.747Z,0.60
2022-09-06T03:11:21.424Z,0.60
2022-09-06T03:12:23.839Z,0.52
2022-09-06T03:13:26.730Z,0.70
2022-09-06T03:14:29.121Z,0.70
2022-09-06T03:15:31.585Z,0.60
2022-09-06T03:16:34.041Z,0.70
2022-09-06T03:17:36.526Z,0.77
2022-09-06T03:18:38.905Z,0.65
2022-09-06T03:19:41.285Z,0.50
2022-09-06T03:20:43.700Z,0.60
2022-09-06T03:21:46.074Z,0.70
2022-09-06T03:22:48.447Z,0.50
2022-09-06T03:23:50.972Z,0.60
2022-09-06T03:24:53.361Z,0.73
2022-09-06T03:25:56.389Z,0.60
2022-09-06T03:26:58.851Z,0.60
2022-09-06T03:28:01.501Z,0.50
2022-09-06T03:29:03.982Z,0.70
2022-09-06T03:30:07.191Z,0.60
2022-09-06T03:31:09.896Z,0.52
2022-09-06T03:32:12.402Z,0.60
2022-09-06T03:33:15.636Z,0.80
2022-09-06T03:34:18.005Z,0.70
2022-09-06T03:35:20.437Z,0.70
2022-09-06T03:36:22.972Z,0.60
2022-09-06T03:37:25.424Z,0.63
2022-09-06T03:38:29.261Z,0.73
2022-09-06T03:39:31.775Z,0.88
2022-09-06T03:40:34.173Z,0.60
2022-09-06T03:41:38.139Z,0.50
2022-09-06T03:42:40.614Z,0.50
2022-09-06T03:43:43.009Z,0.50
2022-09-06T03:44:45.789Z,0.60
2022-09-06T03:45:51.444Z,0.55
2022-09-06T03:46:54.005Z,0.65
2022-09-06T03:47:56.405Z,0.60
2022-09-06T03:48:59.429Z,0.50
2022-09-06T03:50:01.961Z,0.70
2022-09-06T03:51:04.994Z,0.50
2022-09-06T03:52:07.427Z,0.47
2022-09-06T03:53:09.871Z,0.47
2022-09-06T03:54:12.247Z,0.77
2022-09-06T03:55:14.733Z,0.60
2022-09-06T03:56:17.386Z,0.63
2022-09-06T03:57:19.795Z,0.57
2022-09-06T03:58:24.551Z,0.68
2022-09-06T03:59:26.968Z,0.50
2022-09-06T04:00:29.377Z,0.60
2022-09-06T04:01:31.940Z,0.50
2022-09-06T04:02:34.484Z,0.55
2022-09-06T04:03:37.595Z,0.50
2022-09-06T04:04:39.998Z,0.50
2022-09-06T04:05:46.473Z,0.65
2022-09-06T04:06:48.875Z,0.75
2022-09-06T04:07:51.262Z,0.70
2022-09-06T04:08:54.360Z,0.60
2022-09-06T04:09:56.709Z,0.60
2022-09-06T04:10:59.806Z,0.63
2022-09-06T04:12:02.426Z,0.60
2022-09-06T04:13:04.829Z,0.52
2022-09-06T04:14:07.207Z,0.50
2022-09-06T04:15:10.031Z,0.57
2022-09-06T04:16:12.607Z,0.47
2022-09-06T04:17:15.122Z,0.50
2022-09-06T04:18:17.756Z,0.50
2022-09-06T04:19:20.164Z,0.50
2022-09-06T04:20:22.628Z,0.65
2022-09-06T04:21:25.197Z,0.50
2022-09-06T04:22:27.589Z,0.57
2022-09-06T04:23:30.997Z,0.50
2022-09-06T04:24:33.366Z,0.60
2022-09-06T04:25:35.760Z,0.50
2022-09-06T04:26:38.208Z,0.68
2022-09-06T04:27:40.737Z,0.52
2022-09-06T04:28:43.221Z,0.45
2022-09-06T04:29:45.639Z,0.50
2022-09-06T04:31:08.174Z,0.70
2022-09-06T04:32:10.944Z,0.55
2022-09-06T04:33:13.355Z,0.50
2022-09-06T04:34:16.404Z,0.75
2022-09-06T04:35:18.850Z,0.50
2022-09-06T04:36:21.327Z,0.70
2022-09-06T04:37:23.724Z,0.70
2022-09-06T04:38:28.317Z,0.40
2022-09-06T04:39:30.836Z,0.90
2022-09-06T04:40:33.265Z,0.50
2022-09-06T04:41:35.723Z,0.50
2022-09-06T04:42:38.101Z,0.43
2022-09-06T04:43:40.629Z,0.50
2022-09-06T04:44:43.032Z,0.63
2022-09-06T04:45:45.722Z,0.65
2022-09-06T04:46:49.012Z,0.60
2022-09-06T04:47:51.575Z,0.55
2022-09-06T04:48:55.379Z,0.50
2022-09-06T04:49:57.854Z,0.50
2022-09-06T04:51:00.259Z,0.60
2022-09-06T04:52:02.799Z,0.50
2022-09-06T04:53:06.103Z,0.60
2022-09-06T04:54:08.576Z,0.50
2022-09-06T04:55:10.988Z,0.50
2022-09-06T04:56:18.646Z,0.47
2022-09-06T04:57:21.125Z,0.50
2022-09-06T04:58:23.823Z,0.50
2022-09-06T04:59:26.295Z,0.50
2022-09-06T05:00:31.088Z,0.40
2022-09-06T05:01:33.528Z,0.50
2022-09-06T05:02:36.061Z,0.40
2022-09-06T05:03:38.551Z,0.40
2022-09-06T05:04:40.962Z,0.50
2022-09-06T05:05:43.354Z,0.73
2022-09-06T05:06:45.841Z,0.50
2022-09-06T05:07:51.379Z,0.70
2022-09-06T05:08:53.957Z,0.50
2022-09-06T05:09:56.700Z,0.50
2022-09-06T05:10:59.147Z,0.70
2022-09-06T05:12:01.912Z,0.60
2022-09-06T05:13:04.412Z,0.50
2022-09-06T05:14:06.830Z,0.52
2022-09-06T05:15:09.743Z,0.60
2022-09-06T05:16:12.276Z,0.50
2022-09-06T05:17:14.774Z,0.52
2022-09-06T05:18:17.175Z,0.40
2022-09-06T05:19:21.442Z,0.60
2022-09-06T05:20:23.843Z,0.50
2022-09-06T05:21:26.353Z,0.50
2022-09-06T05:22:28.799Z,0.50
2022-09-06T05:23:31.212Z,0.50
2022-09-06T05:24:33.590Z,0.52
2022-09-06T05:25:35.997Z,0.50
2022-09-06T05:26:38.809Z,0.40
2022-09-06T05:27:41.200Z,0.50
2022-09-06T05:28:43.666Z,0.68
2022-09-06T05:29:46.043Z,0.50
2022-09-06T05:30:48.478Z,0.60
2022-09-06T05:31:51.024Z,0.60
2022-09-06T05:32:53.633Z,0.43
2022-09-06T05:33:57.651Z,0.32
2022-09-06T05:35:00.085Z,0.50
2022-09-06T05:36:04.206Z,0.50
2022-09-06T05:37:06.587Z,0.60
2022-09-06T05:38:08.987Z,0.52
2022-09-06T05:39:11.374Z,0.65
2022-09-06T05:40:13.834Z,0.43
2022-09-06T05:41:16.371Z,0.40
2022-09-06T05:42:20.734Z,0.57
2022-09-06T05:43:23.195Z,0.50
2022-09-06T05:44:25.626Z,0.60
2022-09-06T05:45:28.053Z,0.60
2022-09-06T05:46:30.513Z,0.60
2022-09-06T05:47:35.327Z,0.52
2022-09-06T05:48:38.162Z,0.50
2022-09-06T05:49:41.027Z,0.57
2022-09-06T05:50:43.456Z,0.60
2022-09-06T05:51:51.484Z,0.50
2022-09-06T05:52:54.378Z,0.50
2022-09-06T05:53:56.837Z,0.60
2022-09-06T05:55:01.871Z,0.60
2022-09-06T05:56:07.461Z,0.43
2022-09-06T05:57:09.899Z,0.60
2022-09-06T05:58:12.819Z,0.50
2022-09-06T05:59:15.342Z,0.77
2022-09-06T06:00:17.909Z,0.50
2022-09-06T06:01:28.294Z,0.52
2022-09-06T06:02:30.857Z,0.60
2022-09-06T06:03:33.346Z,0.47
2022-09-06T06:04:35.919Z,0.60
2022-09-06T06:05:38.388Z,0.65
2022-09-06T06:06:40.795Z,0.50
2022-09-06T06:07:43.206Z,0.57
2022-09-06T06:08:45.930Z,0.50
2022-09-06T06:09:49.634Z,0.57
2022-09-06T06:10:52.044Z,0.50
2022-09-06T06:11:54.467Z,0.40
2022-09-06T06:13:07.197Z,0.70
2022-09-06T06:14:10.937Z,0.50
2022-09-06T06:15:13.394Z,0.60
2022-09-06T06:16:17.667Z,0.60
2022-09-06T06:17:20.111Z,0.57
2022-09-06T06:18:22.701Z,0.60
2022-09-06T06:19:26.579Z,0.60
2022-09-06T06:20:29.002Z,0.60
2022-09-06T06:21:33.203Z,0.55
2022-09-06T06:22:35.699Z,0.60
2022-09-06T06:23:38.893Z,0.55
2022-09-06T06:24:41.301Z,0.60
2022-09-06T06:25:43.940Z,0.70
2022-09-06T06:26:46.317Z,0.50
2022-09-06T06:27:48.706Z,0.57
2022-09-06T06:28:51.689Z,0.70
2022-09-06T06:29:54.085Z,0.60
2022-09-06T06:30:56.638Z,0.50
2022-09-06T06:31:59.190Z,0.60
2022-09-06T06:33:02.544Z,0.60
2022-09-06T06:34:05.278Z,0.55
2022-09-06T06:35:09.518Z,0.50
2022-09-06T06:36:23.361Z,0.70
2022-09-06T06:37:27.833Z,0.60
2022-09-06T06:38:35.417Z,0.50
2022-09-06T06:39:38.623Z,0.80
2022-09-06T06:40:45.602Z,0.55
2022-09-06T06:41:50.640Z,0.60
2022-09-06T06:43:02.264Z,0.60
2022-09-06T06:44:05.667Z,0.50
2022-09-06T06:45:08.774Z,0.45
2022-09-06T06:46:15.015Z,0.68
2022-09-06T06:47:17.542Z,0.52
2022-09-06T06:48:20.616Z,0.68
2022-09-06T06:49:22.995Z,0.60
2022-09-06T06:50:25.427Z,0.70
2022-09-06T06:51:30.034Z,0.40
2022-09-06T06:52:32.422Z,0.63
2022-09-06T06:53:35.413Z,0.60
2022-09-06T06:54:37.981Z,0.70
2022-09-06T06:55:45.338Z,0.60
2022-09-06T06:56:47.753Z,0.60
2022-09-06T06:57:50.400Z,0.43
2022-09-06T06:58:55.636Z,0.55
2022-09-06T06:59:58.281Z,0.50
2022-09-06T07:01:00.787Z,0.70
2022-09-06T07:02:03.333Z,0.55
2022-09-06T07:03:06.735Z,0.45
2022-09-06T07:04:10.459Z,0.50
2022-09-06T07:08:16.740Z,0.70
2022-09-06T07:09:20.279Z,0.68
2022-09-06T07:10:38.051Z,0.70
2022-09-06T07:11:40.521Z,0.55
2022-09-06T07:12:42.940Z,0.80
2022-09-06T07:13:45.551Z,0.73
2022-09-06T07:14:47.955Z,0.63
2022-09-06T07:15:50.348Z,0.70
2022-09-06T07:16:58.148Z,0.40
2022-09-06T07:18:01.443Z,0.60
2022-09-06T07:19:04.032Z,0.60
2022-09-06T07:20:14.978Z,0.65
2022-09-06T07:22:39.454Z,0.63
2022-09-06T07:25:05.453Z,0.60
2022-09-06T07:26:08.152Z,0.55
2022-09-06T07:28:33.178Z,0.70
2022-09-06T07:29:35.578Z,0.68
2022-09-06T07:30:38.012Z,0.50
2022-09-06T07:33:06.260Z,0.60
2022-09-06T07:34:08.655Z,0.77
2022-09-06T07:35:13.032Z,0.68
2022-09-06T07:36:15.639Z,0.52
2022-09-06T07:37:18.087Z,0.68
2022-09-06T07:38:20.501Z,0.60
2022-09-06T07:39:23.234Z,0.80
2022-09-06T07:40:28.074Z,0.60
2022-09-06T07:41:30.529Z,0.60
2022-09-06T07:42:36.319Z,0.55
2022-09-06T07:43:39.219Z,0.70
2022-09-06T07:44:41.618Z,0.60
2022-09-06T07:45:44.089Z,0.43
2022-09-06T07:46:46.581Z,0.70
2022-09-06T07:48:01.601Z,0.60
2022-09-06T07:49:05.500Z,0.80
2022-09-06T07:51:30.824Z,0.60
2022-09-06T07:54:12.954Z,0.60
2022-09-06T07:55:18.603Z,0.70
2022-09-06T07:56:22.541Z,0.70
2022-09-06T07:57:24.959Z,0.70
2022-09-06T07:58:29.316Z,0.50
2022-09-06T07:59:31.690Z,0.57
2022-09-06T08:00:34.113Z,0.60
2022-09-06T08:01:38.581Z,0.50
2022-09-06T08:02:41.071Z,0.65
2022-09-06T08:03:43.996Z,0.45
2022-09-06T08:04:51.040Z,0.60
2022-09-06T08:06:09.991Z,0.57
2022-09-06T08:09:58.594Z,0.73
2022-09-06T08:11:01.151Z,0.50
2022-09-06T08:12:07.402Z,0.52
2022-09-06T08:13:10.040Z,0.80
2022-09-06T08:14:12.449Z,0.50
2022-09-06T08:15:14.901Z,0.60
2022-09-06T08:16:18.137Z,0.60
2022-09-06T08:17:20.767Z,0.70
2022-09-06T08:18:23.168Z,0.73
2022-09-06T08:19:25.605Z,0.60
2022-09-06T08:20:27.968Z,0.60
2022-09-06T08:21:32.276Z,0.60
2022-09-06T08:22:34.698Z,0.63
2022-09-06T08:23:38.639Z,0.60
2022-09-06T08:24:41.026Z,0.50
2022-09-06T08:25:43.477Z,0.85
2022-09-06T08:26:45.869Z,0.40
2022-09-06T08:27:48.284Z,0.50
2022-09-06T08:29:00.030Z,0.75
2022-09-06T08:30:02.463Z,0.73
2022-09-06T08:31:13.681Z,0.60
2022-09-06T08:32:16.988Z,0.70
2022-09-06T08:33:21.874Z,0.65
2022-09-06T08:34:24.506Z,0.60
2022-09-06T08:35:27.118Z,0.60
2022-09-06T08:36:30.638Z,0.60
2022-09-06T08:37:33.068Z,0.60
2022-09-06T08:38:35.925Z,0.60
2022-09-06T08:39:38.374Z,0.60
2022-09-06T08:40:40.805Z,0.50
2022-09-06T08:41:48.766Z,0.55
2022-09-06T08:42:51.881Z,0.57
2022-09-06T08:45:23.206Z,0.55
2022-09-06T08:46:47.743Z,0.50
2022-09-06T08:47:52.354Z,0.63
2022-09-06T08:48:55.353Z,0.50
2022-09-06T08:50:03.149Z,0.77
2022-09-06T08:51:43.900Z,0.57
2022-09-06T08:53:17.921Z,0.70
2022-09-06T08:54:39.908Z,0.68
2022-09-06T08:56:07.222Z,0.73
2022-09-06T08:57:40.067Z,0.60
2022-09-06T08:59:11.500Z,0.85
2022-09-06T09:00:15.008Z,0.68
2022-09-06T09:01:27.531Z,0.70
2022-09-06T09:02:51.679Z,0.60
2022-09-06T09:03:56.295Z,0.50
2022-09-06T09:05:04.596Z,0.80
2022-09-06T09:06:10.063Z,0.80
2022-09-06T09:07:43.332Z,0.77
2022-09-06T09:09:05.875Z,0.50
2022-09-06T09:10:15.946Z,0.60
2022-09-06T09:11:23.249Z,0.70
2022-09-06T09:12:27.154Z,0.70
2022-09-06T09:13:39.126Z,0.60
2022-09-06T09:14:44.380Z,0.52
2022-09-06T09:15:46.905Z,0.50
2022-09-06T09:16:54.632Z,0.60
2022-09-06T09:17:57.174Z,0.70
2022-09-06T09:19:02.421Z,0.55
2022-09-06T09:20:08.398Z,0.70
2022-09-06T09:21:11.017Z,0.60
2022-09-06T09:22:19.062Z,0.50
2022-09-06T09:23:21.791Z,0.70
2022-09-06T09:24:24.928Z,0.73
2022-09-06T09:25:28.914Z,0.60
2022-09-06T09:26:54.324Z,0.60
2022-09-06T09:28:00.222Z,0.50
2022-09-06T09:29:04.900Z,0.50
2022-09-06T09:31:40.153Z,0.80
2022-09-06T09:32:45.152Z,0.60
2022-09-06T09:33:47.957Z,0.50
2022-09-06T09:34:51.652Z,0.82
2022-09-06T09:35:55.561Z,0.60
2022-09-06T09:38:51.594Z,0.60
2022-09-06T09:39:56.301Z,0.60
2022-09-06T09:41:05.871Z,0.60
2022-09-06T09:42:09.665Z,0.60
2022-09-06T09:43:19.279Z,0.63
2022-09-06T09:44:28.033Z,0.77
2022-09-06T09:45:31.346Z,0.70
2022-09-06T09:46:39.687Z,0.68
2022-09-06T09:47:42.473Z,0.70
2022-09-06T09:49:20.040Z,0.77
2022-09-06T09:50:33.772Z,0.68
2022-09-06T09:51:40.692Z,0.65
2022-09-06T09:52:45.793Z,0.80
2022-09-06T09:54:09.600Z,0.60
2022-09-06T09:55:11.983Z,0.65
2022-09-06T09:56:15.645Z,0.60
2022-09-06T09:57:19.285Z,0.75
2022-09-06T09:58:34.915Z,0.80
2022-09-06T09:59:42.834Z,0.60
2022-09-06T10:00:45.295Z,0.77
2022-09-06T10:01:48.180Z,0.60
2022-09-06T10:02:50.596Z,0.80
2022-09-06T10:05:24.766Z,0.60
2022-09-06T10:07:58.278Z,0.77
2022-09-06T10:09:19.108Z,0.73
2022-09-06T10:10:32.097Z,0.70
2022-09-06T10:11:41.359Z,0.50
2022-09-06T10:12:43.866Z,0.70
2022-09-06T10:13:46.251Z,0.60
2022-09-06T10:14:49.815Z,0.55
2022-09-06T10:15:53.869Z,0.60
2022-09-06T10:16:57.143Z,0.60
2022-09-06T10:17:59.816Z,0.80
2022-09-06T10:19:22.672Z,0.60
2022-09-06T10:20:39.199Z,0.60
2022-09-06T10:21:41.693Z,0.68
2022-09-06T10:22:58.756Z,0.80
2022-09-06T10:24:27.813Z,0.60
2022-09-06T10:26:02.693Z,0.75
2022-09-06T10:27:05.127Z,0.90
2022-09-06T10:28:30.216Z,0.65
2022-09-06T10:29:50.253Z,0.65
2022-09-06T10:31:26.419Z,0.50
2022-09-06T10:32:42.619Z,0.70
2022-09-06T10:34:19.406Z,0.68
2022-09-06T10:35:27.411Z,0.80
2022-09-06T10:36:38.395Z,0.60
2022-09-06T10:38:14.174Z,0.73
2022-09-06T10:39:43.397Z,0.70
2022-09-06T10:40:48.543Z,0.70
2022-09-06T10:42:13.593Z,0.60
2022-09-06T10:43:20.012Z,0.70
2022-09-06T10:44:54.955Z,0.85
2022-09-06T10:46:02.236Z,0.85
2022-09-06T10:47:30.057Z,0.80
2022-09-06T10:48:38.659Z,0.70
2022-09-06T10:49:56.181Z,0.70
2022-09-06T10:51:07.695Z,0.50
2022-09-06T10:52:15.254Z,0.80
2022-09-06T10:53:39.691Z,0.65
2022-09-06T10:54:42.262Z,0.80
2022-09-06T10:55:48.092Z,0.75
2022-09-06T10:56:50.723Z,0.70
2022-09-06T10:58:17.898Z,0.68
2022-09-06T10:59:40.150Z,0.65
2022-09-06T11:00:47.244Z,0.70
2022-09-06T11:01:55.718Z,0.70
2022-09-06T11:06:12.389Z,0.60
2022-09-06T11:07:23.994Z,0.70
2022-09-06T11:08:53.241Z,0.65
2022-09-06T11:10:26.952Z,0.70
2022-09-06T11:11:40.231Z,0.50
2022-09-06T11:12:49.765Z,0.90
2022-09-06T11:13:52.147Z,0.70
2022-09-06T11:14:55.465Z,0.70
2022-09-06T11:16:21.472Z,0.70
2022-09-06T11:17:26.595Z,0.60
2022-09-06T11:18:52.320Z,0.63
2022-09-06T11:20:06.435Z,0.45
2022-09-06T11:21:20.866Z,0.73
2022-09-06T11:22:56.766Z,0.70
2022-09-06T11:24:12.930Z,0.65
2022-09-06T11:25:34.107Z,0.73
2022-09-06T11:26:42.684Z,0.60
2022-09-06T11:27:53.993Z,0.73
2022-09-06T11:29:09.107Z,0.70
2022-09-06T11:30:18.807Z,0.65
2022-09-06T11:33:21.309Z,0.57
2022-09-06T11:34:27.136Z,0.50
2022-09-06T11:35:32.719Z,0.70
2022-09-06T11:36:36.570Z,0.60
2022-09-06T11:37:43.826Z,0.57
2022-09-06T11:39:08.533Z,0.70
2022-09-06T11:40:27.814Z,0.50
2022-09-06T11:41:35.214Z,0.47
2022-09-06T11:42:45.884Z,0.60
2022-09-06T11:43:50.798Z,0.50
2022-09-06T11:44:57.654Z,0.50
2022-09-06T11:46:00.104Z,0.57
2022-09-06T11:47:02.676Z,0.50
2022-09-06T11:48:23.582Z,0.50
2022-09-06T11:49:34.062Z,0.50
2022-09-06T11:50:54.878Z,0.60
2022-09-06T11:51:57.571Z,0.40
2022-09-06T11:53:19.264Z,0.40
2022-09-06T11:54:37.206Z,0.50
2022-09-06T11:55:46.021Z,0.50
2022-09-06T11:56:51.173Z,0.50
2022-09-06T11:58:00.282Z,0.60
2022-09-06T11:59:27.374Z,0.40
2022-09-06T12:00:29.904Z,0.52
2022-09-06T12:01:33.917Z,0.65
2022-09-06T12:02:41.313Z,0.47
2022-09-06T12:05:13.501Z,0.40
2022-09-06T12:06:30.126Z,0.30
2022-09-06T12:07:35.282Z,0.50
2022-09-06T12:08:37.748Z,0.57
2022-09-06T12:09:44.184Z,0.32
2022-09-06T12:10:58.526Z,0.40
2022-09-06T12:12:02.346Z,0.40
2022-09-06T12:13:34.738Z,0.40
2022-09-06T12:14:40.755Z,0.45
2022-09-06T12:15:52.892Z,0.50
2022-09-06T12:17:00.825Z,0.40
2022-09-06T12:18:03.224Z,0.60
2022-09-06T12:19:06.136Z,0.60
2022-09-06T12:20:08.674Z,0.38
2022-09-06T12:21:36.893Z,0.40
2022-09-06T12:22:40.256Z,0.50
2022-09-06T12:23:43.315Z,0.30
2022-09-06T12:24:45.709Z,0.40
2022-09-06T12:25:52.890Z,0.32
2022-09-06T12:27:15.665Z,0.40
2022-09-06T12:28:28.100Z,0.40
2022-09-06T12:29:30.646Z,0.40
2022-09-06T12:30:41.154Z,0.40
2022-09-06T12:31:52.200Z,0.40
2022-09-06T12:32:54.813Z,0.32
2022-09-06T12:33:58.938Z,0.40
2022-09-06T12:36:31.719Z,0.38
2022-09-06T12:37:49.265Z,0.40
2022-09-06T12:39:00.227Z,0.30
2022-09-06T12:40:04.306Z,0.30
2022-09-06T12:41:08.210Z,0.35
2022-09-06T12:42:14.049Z,0.40
2022-09-06T12:43:17.770Z,0.40
2022-09-06T12:44:30.262Z,0.38
2022-09-06T12:45:33.025Z,0.30
2022-09-06T12:46:36.723Z,0.40
2022-09-06T12:47:42.358Z,0.30
2022-09-06T12:49:09.952Z,0.40
2022-09-06T12:50:22.569Z,0.30
2022-09-06T12:51:26.212Z,0.30
2022-09-06T12:52:28.611Z,0.30
2022-09-06T12:53:34.184Z,0.40
2022-09-06T12:54:47.975Z,0.25
2022-09-06T12:56:14.511Z,0.40
2022-09-06T12:57:25.166Z,0.30
2022-09-06T12:58:30.577Z,0.38
2022-09-06T12:59:33.478Z,0.30
2022-09-06T13:00:52.081Z,0.30
2022-09-06T13:02:16.256Z,0.30
2022-09-06T13:03:34.267Z,0.30
2022-09-06T13:04:43.215Z,0.30
2022-09-06T13:05:46.419Z,0.30
2022-09-06T13:06:49.112Z,0.20
2022-09-06T13:07:55.020Z,0.32
2022-09-06T13:08:58.739Z,0.30
2022-09-06T13:10:02.510Z,0.30
2022-09-06T13:11:10.874Z,0.30
2022-09-06T13:12:33.111Z,0.30
2022-09-06T13:13:35.529Z,0.30
2022-09-06T13:14:37.944Z,0.30
2022-09-06T13:15:46.888Z,0.30
2022-09-06T13:16:52.033Z,0.30
2022-09-06T13:18:15.253Z,0.30
2022-09-06T13:20:25.807Z,0.25
2022-09-06T13:21:32.848Z,0.28
2022-09-06T13:22:39.986Z,0.30
2022-09-06T13:23:47.780Z,0.40
2022-09-06T13:24:55.944Z,0.30
2022-09-06T13:25:58.361Z,0.30
2022-09-06T13:27:01.164Z,0.20
2022-09-06T13:28:03.589Z,0.22
2022-09-06T13:29:17.812Z,0.28
2022-09-06T13:30:36.721Z,0.22
2022-09-06T13:31:43.522Z,0.30
2022-09-06T13:32:47.465Z,0.20
2022-09-06T13:33:57.798Z,0.20
2022-09-06T13:35:01.352Z,0.30
2022-09-06T13:36:24.256Z,0.50
2022-09-06T13:37:29.608Z,0.30
2022-09-06T13:38:39.052Z,0.40
2022-09-06T13:39:46.285Z,0.30
2022-09-06T13:41:11.511Z,0.30
2022-09-06T13:42:32.982Z,0.32
2022-09-06T13:43:47.531Z,0.30
2022-09-06T13:44:51.022Z,0.30
2022-09-06T13:46:07.227Z,0.30
2022-09-06T13:47:09.610Z,0.22
2022-09-06T13:48:38.752Z,0.20
2022-09-06T13:49:34.352Z,0.30
2022-09-06T13:50:36.720Z,0.30
2022-09-06T13:51:41.946Z,0.30
2022-09-06T13:52:44.307Z,0.30
2022-09-06T13:53:46.729Z,0.40
2022-09-06T13:54:49.171Z,0.30
2022-09-06T13:55:52.650Z,0.20
2022-09-06T13:56:55.989Z,0.40
2022-09-06T13:57:58.394Z,0.20
2022-09-06T13:59:00.943Z,0.20
2022-09-06T14:00:04.205Z,0.25
2022-09-06T14:01:09.736Z,0.20
2022-09-06T14:02:15.773Z,0.30
2022-09-06T14:03:24.943Z,0.30
2022-09-06T14:04:27.410Z,0.22
2022-09-06T14:05:29.777Z,0.20
2022-09-06T14:06:36.596Z,0.28
2022-09-06T14:07:39.571Z,0.20
2022-09-06T14:09:05.908Z,0.20
2022-09-06T14:11:08.515Z,0.30
2022-09-06T14:12:11.056Z,0.30
2022-09-06T14:13:16.667Z,0.30
2022-09-06T14:14:22.491Z,0.20
2022-09-06T14:15:25.128Z,0.20
2022-09-06T14:16:27.657Z,0.28
2022-09-06T14:17:30.142Z,0.22
2022-09-06T14:18:32.683Z,0.20
2022-09-06T14:19:35.167Z,0.30
2022-09-06T14:20:38.062Z,0.20
2022-09-06T14:21:40.514Z,0.20
2022-09-06T14:22:42.934Z,0.40
2022-09-06T14:23:50.863Z,0.20
2022-09-06T14:24:53.722Z,0.25
2022-09-06T14:25:57.345Z,0.20
2022-09-06T14:26:59.788Z,0.22
2022-09-06T14:28:03.726Z,0.30
2022-09-06T14:29:06.160Z,0.20
2022-09-06T14:30:09.151Z,0.20
2022-09-06T14:31:14.015Z,0.20
2022-09-06T14:32:20.533Z,0.30
2022-09-06T14:33:25.098Z,0.20
2022-09-06T14:34:27.794Z,0.30
2022-09-06T14:35:31.789Z,0.20
2022-09-06T14:36:34.523Z,0.40
2022-09-06T14:37:37.617Z,0.30
2022-09-06T14:38:41.762Z,0.25
2022-09-06T14:39:45.122Z,0.20
2022-09-06T14:40:47.568Z,0.20
2022-09-06T14:41:50.600Z,0.30
2022-09-06T14:42:53.342Z,0.30
2022-09-06T14:43:57.988Z,0.20
2022-09-06T14:45:00.504Z,0.20
2022-09-06T14:46:12.468Z,0.20
2022-09-06T14:47:14.926Z,0.28
2022-09-06T14:48:17.626Z,0.20
2022-09-06T14:49:20.709Z,0.30
2022-09-06T14:50:23.525Z,0.30
2022-09-06T14:51:26.682Z,0.20
2022-09-06T14:52:29.173Z,0.20
2022-09-06T14:53:40.178Z,0.20
2022-09-06T14:54:43.288Z,0.30
2022-09-06T14:55:45.751Z,0.20
2022-09-06T14:56:48.660Z,0.25
2022-09-06T14:57:51.096Z,0.20
2022-09-06T14:58:57.164Z,0.30
2022-09-06T15:00:00.650Z,0.22
2022-09-06T15:01:22.683Z,0.20
2022-09-06T15:02:26.217Z,0.30
2022-09-06T15:03:28.806Z,0.20
2022-09-06T15:04:31.246Z,0.30
2022-09-06T15:05:33.744Z,0.20
2022-09-06T15:06:39.121Z,0.28
2022-09-06T15:07:41.533Z,0.30
2022-09-06T15:08:44.507Z,0.20
2022-09-06T15:09:47.055Z,0.30
2022-09-06T15:10:54.204Z,0.20
2022-09-06T15:11:56.729Z,0.30
2022-09-06T15:12:59.133Z,0.30
2022-09-06T15:14:03.914Z,0.20
2022-09-06T15:15:06.636Z,0.30
2022-09-06T15:16:10.960Z,0.20
2022-09-06T15:17:13.474Z,0.20
2022-09-06T15:18:16.577Z,0.20
2022-09-06T15:19:22.698Z,0.50
2022-09-06T15:20:25.126Z,0.25
2022-09-06T15:21:27.562Z,0.30
2022-09-06T15:22:29.939Z,0.20